Time;durP1;ratioP1;P1;durP2;ratioP2;P2;SDS_P1;SDS_P2;PMS_P1;PMS_P2;Temp;Humidity;BMP_temperature;BMP_pressure;BME280_temperature;BME280_humidity;BME280_pressure;Samples;Min_cycle;Max_cycle;Signal;HPM_P1;HPM_P2
2022/03/14 00:00:11;;;;;;;2.43;1.93;;;17.00;51.40;;;;;;5223464;28;20252;-68
2022/03/14 00:03:04;;;;;;;2.10;1.53;;;17.00;51.40;;;;;;5236957;28;20219;-68
2022/03/14 00:05:56;;;;;;;3.20;1.90;;;17.00;51.50;;;;;;5230729;28;20239;-68
2022/03/14 00:08:50;;;;;;;2.37;1.83;;;17.00;51.30;;;;;;5224609;28;20278;-67
2022/03/14 00:11:43;;;;;;;2.00;1.80;;;17.00;51.30;;;;;;5225296;28;20201;-67
2022/03/14 00:14:37;;;;;;;2.53;1.70;;;17.00;51.40;;;;;;5225581;28;20226;-69
2022/03/14 00:17:29;;;;;;;2.70;2.07;;;16.90;51.40;;;;;;5228160;28;20672;-69
2022/03/14 00:20:22;;;;;;;2.03;1.70;;;17.00;51.40;;;;;;5233639;28;20241;-68
2022/03/14 00:23:16;;;;;;;2.30;1.60;;;17.00;51.50;;;;;;5248618;28;20303;-68
2022/03/14 00:26:08;;;;;;;4.37;1.80;;;17.00;51.30;;;;;;5249101;28;20281;-69
2022/03/14 00:29:00;;;;;;;2.20;1.70;;;17.00;51.40;;;;;;5249393;28;20664;-68
2022/03/14 00:31:54;;;;;;;2.00;1.50;;;16.90;52.00;;;;;;5243310;28;20239;-68
2022/03/14 00:34:46;;;;;;;2.17;1.77;;;17.00;52.00;;;;;;5244445;28;20230;-68
2022/03/14 00:37:39;;;;;;;2.30;1.97;;;17.00;51.30;;;;;;5247294;28;20258;-68
2022/03/14 00:40:31;;;;;;;2.00;1.53;;;17.00;51.40;;;;;;5247314;28;20211;-69
2022/03/14 00:43:23;;;;;;;1.97;1.77;;;17.00;51.40;;;;;;5247606;28;20246;-68
2022/03/14 00:46:17;;;;;;;1.87;1.67;;;17.00;51.40;;;;;;5246757;28;20267;-68
2022/03/14 00:49:11;;;;;;;1.90;1.70;;;17.00;51.40;;;;;;5246640;28;20276;-69
2022/03/14 00:52:04;;;;;;;2.23;1.70;;;17.00;51.50;;;;;;5235771;28;20197;-68
2022/03/14 00:54:56;;;;;;;2.30;1.90;;;16.90;51.30;;;;;;5226020;28;20242;-68
2022/03/14 00:57:48;;;;;;;1.90;1.57;;;16.90;51.50;;;;;;5226200;28;20335;-67
2022/03/14 01:00:41;;;;;;;2.70;1.90;;;17.00;51.40;;;;;;5226285;28;20276;-69
2022/03/14 01:03:33;;;;;;;2.03;1.80;;;17.00;51.50;;;;;;5226038;28;20210;-68
2022/03/14 01:06:27;;;;;;;2.17;1.97;;;17.00;51.50;;;;;;5228949;28;20194;-68
2022/03/14 01:09:19;;;;;;;2.57;1.77;;;17.00;51.40;;;;;;5227070;28;20197;-69
2022/03/14 01:12:12;;;;;;;2.17;1.70;;;17.00;51.40;;;;;;5242287;28;20287;-68
2022/03/14 01:15:05;;;;;;;2.53;1.80;;;17.00;51.40;;;;;;5244555;28;20290;-69
2022/03/14 01:17:58;;;;;;;2.70;2.23;;;16.90;51.30;;;;;;5246542;28;20192;-67
2022/03/14 01:20:50;;;;;;;2.50;2.10;;;16.90;51.40;;;;;;5246096;28;20192;-68
2022/03/14 01:23:43;;;;;;;2.13;1.40;;;17.00;51.50;;;;;;5246152;28;20350;-68
2022/03/14 01:26:35;;;;;;;2.03;1.57;;;17.00;52.10;;;;;;5246501;28;20243;-67
2022/03/14 01:29:27;;;;;;;2.23;1.80;;;16.90;51.40;;;;;;5246505;28;20224;-69
2022/03/14 01:32:20;;;;;;;1.70;1.60;;;16.90;51.40;;;;;;5227527;28;1108370;-68
2022/03/14 01:35:13;;;;;;;2.00;1.50;;;16.90;51.30;;;;;;5235701;28;20246;-69
2022/03/14 01:38:05;;;;;;;2.27;1.60;;;16.90;51.30;;;;;;5247378;28;20734;-68
2022/03/14 01:40:59;;;;;;;2.37;1.77;;;16.90;51.50;;;;;;5247316;28;20706;-69
2022/03/14 01:43:52;;;;;;;2.63;1.80;;;16.90;51.50;;;;;;5247337;28;20287;-68
2022/03/14 01:46:45;;;;;;;2.37;2.00;;;16.90;51.40;;;;;;5247249;28;20192;-68
2022/03/14 01:49:37;;;;;;;2.23;1.97;;;17.00;51.60;;;;;;5244018;28;20963;-68
2022/03/14 01:52:29;;;;;;;1.80;1.70;;;16.90;51.40;;;;;;5234457;28;20291;-69
2022/03/14 01:55:22;;;;;;;1.70;1.60;;;16.90;51.40;;;;;;5241055;28;20267;-69
2022/03/14 01:58:16;;;;;;;1.60;1.50;;;17.00;51.50;;;;;;5246952;28;20193;-68
2022/03/14 02:01:08;;;;;;;1.90;1.70;;;17.00;51.40;;;;;;5245624;28;20655;-68
2022/03/14 02:04:00;;;;;;;2.03;1.77;;;16.90;51.40;;;;;;5247392;28;20216;-69
2022/03/14 02:06:53;;;;;;;4.10;1.87;;;17.00;51.50;;;;;;5246903;28;20211;-68
2022/03/14 02:09:45;;;;;;;3.07;1.80;;;17.00;52.10;;;;;;5246382;28;20678;-68
2022/03/14 02:12:41;;;;;;;1.93;1.57;;;17.00;51.60;;;;;;5246409;28;20549;-69
2022/03/14 02:15:35;;;;;;;2.30;1.67;;;17.00;51.50;;;;;;5247268;28;20275;-68
2022/03/14 02:18:27;;;;;;;2.40;1.67;;;16.90;51.40;;;;;;5239799;28;20295;-69
2022/03/14 02:21:21;;;;;;;2.90;1.77;;;17.00;51.40;;;;;;5225561;28;20193;-68
2022/03/14 02:24:14;;;;;;;2.07;1.83;;;16.90;51.40;;;;;;5236498;28;20289;-69
2022/03/14 02:27:06;;;;;;;2.03;1.80;;;16.90;51.30;;;;;;5246576;28;20723;-68
2022/03/14 02:29:58;;;;;;;2.23;1.83;;;16.90;51.40;;;;;;5245403;28;20346;-67
2022/03/14 02:32:51;;;;;;;2.10;1.60;;;16.90;51.40;;;;;;5234963;28;20231;-68
2022/03/14 02:35:43;;;;;;;2.27;2.00;;;17.00;51.50;;;;;;5245667;28;20185;-68
2022/03/14 02:38:37;;;;;;;2.50;1.97;;;16.90;51.30;;;;;;5246424;28;20197;-68
2022/03/14 02:41:29;;;;;;;1.60;1.50;;;16.90;51.30;;;;;;5245341;28;20630;-69
2022/03/14 02:44:21;;;;;;;2.33;1.73;;;17.00;51.50;;;;;;5245434;28;20237;-68
2022/03/14 02:47:13;;;;;;;2.13;1.63;;;17.00;51.40;;;;;;5246172;28;20711;-69
2022/03/14 02:50:07;;;;;;;2.97;2.17;;;16.90;51.40;;;;;;5242250;28;20314;-68
2022/03/14 02:52:59;;;;;;;1.93;1.73;;;17.00;51.50;;;;;;5245792;28;20311;-68
2022/03/14 02:55:52;;;;;;;2.27;1.93;;;16.90;51.50;;;;;;5238983;28;20196;-67
2022/03/14 02:58:53;;;;;;;1.83;1.70;;;16.90;51.40;;;;;;5225348;28;20599;-69
2022/03/14 03:01:45;;;;;;;2.33;1.90;;;16.90;51.40;;;;;;5224877;28;20192;-68
2022/03/14 03:04:40;;;;;;;2.83;2.03;;;17.00;51.40;;;;;;5224923;28;20307;-68
2022/03/14 03:07:36;;;;;;;2.00;1.67;;;16.90;51.40;;;;;;5225137;28;20255;-68
2022/03/14 03:10:28;;;;;;;2.77;1.83;;;16.90;51.40;;;;;;5225083;28;20577;-68
2022/03/14 03:13:21;;;;;;;2.20;1.90;;;16.90;51.40;;;;;;5224935;28;20732;-68
2022/03/14 03:16:15;;;;;;;2.47;1.77;;;16.90;51.40;;;;;;5225190;28;20287;-68
2022/03/14 03:19:08;;;;;;;3.17;1.87;;;16.90;51.50;;;;;;5227316;28;20224;-68
2022/03/14 03:22:00;;;;;;;2.20;2.00;;;17.00;51.50;;;;;;5225212;28;20197;-68
2022/03/14 03:24:52;;;;;;;1.70;1.60;;;16.90;51.40;;;;;;5225538;28;20205;-67
2022/03/14 03:27:44;;;;;;;3.17;1.90;;;16.90;51.50;;;;;;5224779;28;20224;-69
2022/03/14 03:30:38;;;;;;;1.87;1.63;;;16.90;51.40;;;;;;5234580;28;20288;-68
2022/03/14 03:33:30;;;;;;;1.77;1.67;;;16.90;51.40;;;;;;5224446;28;20217;-68
2022/03/14 03:36:22;;;;;;;3.23;1.90;;;16.90;51.50;;;;;;5224772;28;20196;-68
2022/03/14 03:39:14;;;;;;;2.03;1.80;;;16.90;51.50;;;;;;5225018;28;20318;-68
2022/03/14 03:42:07;;;;;;;2.53;1.80;;;16.90;51.40;;;;;;5224526;28;20233;-68
2022/03/14 03:44:59;;;;;;;2.53;2.00;;;16.90;51.40;;;;;;5224215;28;20231;-68
2022/03/14 03:47:53;;;;;;;1.83;1.60;;;16.90;51.50;;;;;;5232772;28;20283;-68
2022/03/14 03:50:45;;;;;;;2.30;2.00;;;16.90;51.40;;;;;;5238864;28;20186;-68
2022/03/14 03:53:37;;;;;;;2.53;1.77;;;16.90;51.40;;;;;;5233574;28;20221;-69
2022/03/14 03:56:29;;;;;;;2.00;1.77;;;16.90;51.40;;;;;;5227019;28;20272;-68
2022/03/14 03:59:22;;;;;;;2.13;1.93;;;16.90;51.40;;;;;;5228965;28;20236;-68
2022/03/14 04:02:19;;;;;;;2.27;1.90;;;16.90;51.40;;;;;;5228720;28;20565;-68
2022/03/14 04:05:16;;;;;;;2.43;1.93;;;16.90;51.40;;;;;;5228471;28;20243;-68
2022/03/14 04:08:10;;;;;;;1.90;1.70;;;16.90;51.50;;;;;;5229049;28;20286;-69
2022/03/14 04:11:04;;;;;;;2.63;1.80;;;16.90;51.40;;;;;;5230724;28;20190;-67
2022/03/14 04:13:58;;;;;;;2.90;2.10;;;16.90;51.40;;;;;;5228912;28;20262;-68
2022/03/14 04:16:50;;;;;;;2.87;2.13;;;16.90;51.50;;;;;;5228797;28;20196;-68
2022/03/14 04:19:43;;;;;;;1.90;1.63;;;16.90;51.40;;;;;;5242784;28;20342;-68
2022/03/14 04:22:37;;;;;;;2.07;1.70;;;16.90;51.40;;;;;;5249244;28;20193;-68
2022/03/14 04:25:30;;;;;;;2.40;1.77;;;16.90;51.40;;;;;;5248882;28;20631;-69
2022/03/14 04:28:22;;;;;;;1.97;1.60;;;16.90;51.40;;;;;;5241285;28;20267;-68
2022/03/14 04:31:15;;;;;;;2.60;1.90;;;16.90;51.30;;;;;;5239398;28;20209;-68
2022/03/14 04:34:07;;;;;;;3.00;2.37;;;16.90;51.40;;;;;;5248466;28;20231;-68
2022/03/14 04:37:00;;;;;;;3.07;2.10;;;16.90;51.40;;;;;;5248981;28;20193;-69
2022/03/14 04:39:54;;;;;;;2.93;2.20;;;16.90;51.40;;;;;;5244825;28;20326;-68
2022/03/14 04:42:46;;;;;;;2.60;1.87;;;16.90;51.30;;;;;;5238156;28;20216;-68
2022/03/14 04:45:40;;;;;;;2.63;2.03;;;16.90;51.20;;;;;;5236836;28;20212;-68
2022/03/14 04:48:32;;;;;;;2.20;1.80;;;16.90;51.10;;;;;;5238941;28;20188;-68
2022/03/14 04:51:25;;;;;;;2.43;2.00;;;16.90;51.10;;;;;;5233511;28;20387;-69
2022/03/14 04:54:17;;;;;;;2.27;2.00;;;16.90;51.20;;;;;;5227498;28;20213;-68
2022/03/14 04:57:10;;;;;;;2.23;1.93;;;17.00;51.30;;;;;;5227491;28;20363;-68
2022/03/14 05:00:05;;;;;;;1.90;1.63;;;16.90;51.20;;;;;;5227522;28;20279;-69
2022/03/14 05:03:01;;;;;;;2.73;1.80;;;16.90;51.10;;;;;;5228351;28;20217;-68
2022/03/14 05:05:53;;;;;;;2.57;1.90;;;16.90;51.10;;;;;;5242634;28;20603;-68
2022/03/14 05:08:45;;;;;;;2.67;1.80;;;16.90;51.10;;;;;;5247156;28;20203;-69
2022/03/14 05:11:38;;;;;;;5.23;2.40;;;17.00;51.20;;;;;;5248322;28;20879;-68
2022/03/14 05:14:32;;;;;;;3.17;2.50;;;17.00;51.10;;;;;;5248604;28;20216;-68
2022/03/14 05:17:25;;;;;;;2.97;2.23;;;17.00;51.80;;;;;;5242333;28;20236;-68
2022/03/14 05:20:17;;;;;;;2.13;1.80;;;16.90;51.10;;;;;;5227202;28;20240;-68
2022/03/14 05:23:09;;;;;;;2.50;1.90;;;17.00;51.10;;;;;;5245763;28;20303;-68
2022/03/14 05:26:01;;;;;;;3.13;2.33;;;16.90;51.20;;;;;;5247361;28;20219;-68
2022/03/14 05:28:53;;;;;;;3.00;2.20;;;17.00;51.20;;;;;;5247155;28;20201;-66
2022/03/14 05:31:47;;;;;;;3.00;2.50;;;17.00;51.20;;;;;;5238072;28;20279;-68
2022/03/14 05:34:39;;;;;;;2.47;2.13;;;17.00;51.30;;;;;;5247998;28;20877;-68
2022/03/14 05:37:31;;;;;;;2.47;1.70;;;17.00;51.20;;;;;;5247518;28;20714;-69
2022/03/14 05:40:23;;;;;;;2.03;1.80;;;17.00;51.20;;;;;;5247620;28;20228;-68
2022/03/14 05:43:16;;;;;;;3.07;2.03;;;17.00;51.20;;;;;;5234548;28;20236;-68
2022/03/14 05:46:08;;;;;;;2.47;1.93;;;17.00;51.30;;;;;;5227671;28;20223;-68
2022/03/14 05:49:01;;;;;;;3.27;2.00;;;17.00;51.20;;;;;;5245458;28;20275;-68
2022/03/14 05:51:54;;;;;;;2.53;2.13;;;17.00;51.10;;;;;;5227438;28;20279;-68
2022/03/14 05:54:46;;;;;;;2.37;2.03;;;17.00;51.20;;;;;;5229248;28;20213;-69
2022/03/14 05:57:38;;;;;;;3.20;2.23;;;17.00;51.10;;;;;;5226684;28;20737;-69
2022/03/14 06:00:30;;;;;;;2.83;2.07;;;17.00;51.10;;;;;;5239786;28;20300;-68
2022/03/14 06:03:22;;;;;;;2.80;2.20;;;17.00;51.20;;;;;;5226318;28;20249;-68
2022/03/14 06:06:16;;;;;;;2.37;1.90;;;17.00;51.10;;;;;;5226250;28;20234;-68
2022/03/14 06:09:08;;;;;;;2.70;2.10;;;17.00;51.20;;;;;;5243695;28;20227;-68
2022/03/14 06:12:01;;;;;;;2.20;2.00;;;17.00;51.20;;;;;;5244224;28;20193;-68
2022/03/14 06:14:54;;;;;;;2.23;1.87;;;17.00;51.20;;;;;;5242893;28;20193;-67
2022/03/14 06:17:47;;;;;;;2.23;1.97;;;17.00;51.10;;;;;;5245307;28;20563;-68
2022/03/14 06:20:39;;;;;;;2.53;1.90;;;17.00;51.20;;;;;;5227046;28;20276;-68
2022/03/14 06:23:32;;;;;;;2.73;2.23;;;17.00;51.20;;;;;;5227231;28;20346;-69
2022/03/14 06:26:25;;;;;;;2.30;2.00;;;16.90;51.20;;;;;;5226895;28;20217;-68
2022/03/14 06:29:17;;;;;;;2.83;2.13;;;17.00;51.50;;;;;;5227168;28;20286;-69
2022/03/14 06:32:09;;;;;;;2.30;2.10;;;17.00;51.60;;;;;;5232874;28;20189;-69
2022/03/14 06:35:02;;;;;;;3.47;2.23;;;17.00;51.50;;;;;;5234698;28;20234;-69
2022/03/14 06:37:54;;;;;;;2.97;2.40;;;17.00;51.20;;;;;;5252542;28;20186;-68
2022/03/14 06:40:48;;;;;;;3.00;2.13;;;17.00;51.00;;;;;;5249770;28;20227;-70
2022/03/14 06:43:40;;;;;;;2.80;2.03;;;16.90;50.80;;;;;;5254115;28;20291;-69
2022/03/14 06:46:33;;;;;;;2.40;1.70;;;16.90;50.80;;;;;;5254599;28;20209;-69
2022/03/14 06:49:25;;;;;;;2.63;2.13;;;16.90;50.90;;;;;;5240434;28;20227;-69
2022/03/14 06:52:17;;;;;;;2.70;2.13;;;17.00;51.00;;;;;;5226463;28;20561;-69
2022/03/14 06:55:11;;;;;;;2.53;2.20;;;17.00;51.70;;;;;;5232125;28;20270;-69
2022/03/14 06:58:05;;;;;;;2.53;2.17;;;17.00;51.00;;;;;;5243486;28;20188;-69
2022/03/14 07:00:57;;;;;;;3.20;2.40;;;17.00;51.10;;;;;;5224500;28;20239;-69
2022/03/14 07:03:49;;;;;;;2.73;2.40;;;17.00;51.00;;;;;;5252078;28;20215;-69
2022/03/14 07:06:42;;;;;;;3.80;2.50;;;17.00;51.00;;;;;;5252346;28;20261;-69
2022/03/14 07:09:35;;;;;;;2.60;2.37;;;17.00;51.00;;;;;;5224566;28;20212;-69
2022/03/14 07:12:27;;;;;;;3.17;2.43;;;17.00;51.10;;;;;;5227476;28;20197;-70
2022/03/14 07:15:23;;;;;;;2.67;2.10;;;17.00;51.10;;;;;;5241242;28;20224;-68
2022/03/14 07:18:15;;;;;;;3.63;2.40;;;17.00;51.10;;;;;;5244950;28;20192;-69
2022/03/14 07:21:08;;;;;;;3.97;2.33;;;17.00;51.10;;;;;;5245216;28;20188;-71
2022/03/14 07:24:00;;;;;;;3.03;2.30;;;17.00;51.20;;;;;;5240492;28;20217;-69
2022/03/14 07:26:52;;;;;;;3.50;2.30;;;16.90;51.10;;;;;;5244120;28;20632;-69
2022/03/14 07:29:45;;;;;;;2.40;2.20;;;16.90;51.20;;;;;;5228776;28;20205;-67
2022/03/14 07:32:38;;;;;;;3.33;2.47;;;17.00;51.20;;;;;;5235002;28;20193;-67
2022/03/14 07:35:31;;;;;;;3.27;2.80;;;16.90;50.90;;;;;;5228539;28;20225;-72
2022/03/14 07:38:23;;;;;;;3.20;2.47;;;17.00;50.90;;;;;;5228643;28;20216;-72
2022/03/14 07:41:15;;;;;;;2.70;2.37;;;17.00;51.60;;;;;;5237084;28;20820;-73
2022/03/14 07:44:07;;;;;;;2.70;2.27;;;17.00;51.80;;;;;;5249609;28;20295;-69
2022/03/14 07:47:03;;;;;;;3.00;2.70;;;17.00;51.70;;;;;;5245993;28;20216;-67
2022/03/14 07:49:57;;;;;;;2.97;2.47;;;17.10;50.90;;;;;;5242533;28;20193;-67
2022/03/14 07:52:49;;;;;;;6.33;2.83;;;17.00;50.70;;;;;;5250131;28;20294;-67
2022/03/14 07:55:41;;;;;;;2.97;2.67;;;17.00;50.60;;;;;;5243985;28;20201;-68
2022/03/14 07:58:33;;;;;;;4.10;3.00;;;17.00;50.70;;;;;;5243156;28;20267;-67
2022/03/14 08:01:25;;;;;;;3.33;2.40;;;17.00;50.50;;;;;;5233948;28;20224;-68
2022/03/14 08:04:18;;;;;;;4.10;2.87;;;17.00;50.60;;;;;;5248652;28;20292;-67
2022/03/14 08:07:12;;;;;;;3.30;2.50;;;17.00;50.60;;;;;;5236804;28;20576;-67
2022/03/14 08:10:06;;;;;;;3.33;2.73;;;17.00;50.60;;;;;;5228106;28;20197;-68
2022/03/14 08:12:58;;;;;;;3.47;2.70;;;17.00;50.40;;;;;;5229765;28;20359;-67
2022/03/14 08:15:51;;;;;;;3.47;2.80;;;17.00;50.30;;;;;;5227674;28;20270;-68
2022/03/14 08:18:45;;;;;;;3.53;2.73;;;17.00;50.10;;;;;;5240232;28;20203;-68
2022/03/14 08:21:37;;;;;;;4.37;2.90;;;17.00;49.90;;;;;;5247163;28;20254;-68
2022/03/14 08:24:31;;;;;;;3.43;2.70;;;17.00;49.80;;;;;;5227580;28;20277;-67
2022/03/14 08:27:23;;;;;;;3.67;2.93;;;17.00;49.70;;;;;;5229052;28;20208;-67
2022/03/14 08:30:15;;;;;;;3.67;2.83;;;17.00;49.70;;;;;;5234780;28;20242;-68
2022/03/14 08:33:08;;;;;;;3.80;2.90;;;17.00;49.60;;;;;;5235878;28;20228;-68
2022/03/14 08:36:02;;;;;;;4.03;3.10;;;17.00;49.50;;;;;;5229222;28;20204;-68
2022/03/14 08:38:54;;;;;;;3.70;3.10;;;17.00;49.50;;;;;;5245340;28;20215;-66
2022/03/14 08:41:49;;;;;;;3.53;2.80;;;17.00;49.40;;;;;;5244742;28;20287;-68
2022/03/14 08:44:41;;;;;;;4.57;3.33;;;17.00;49.50;;;;;;5246858;28;20355;-70
2022/03/14 08:47:34;;;;;;;3.73;2.93;;;17.00;49.30;;;;;;5245866;28;20358;-71
2022/03/14 08:50:26;;;;;;;3.97;2.73;;;17.00;50.20;;;;;;5238140;28;20233;-71
2022/03/14 08:53:18;;;;;;;4.23;3.10;;;17.00;50.40;;;;;;5243243;28;20358;-68
2022/03/14 08:56:10;;;;;;;5.67;3.07;;;17.00;49.90;;;;;;5244814;28;20278;-68
2022/03/14 08:59:04;;;;;;;4.80;3.33;;;17.00;50.30;;;;;;5242542;28;20232;-67
2022/03/14 09:01:56;;;;;;;7.57;2.93;;;17.00;49.70;;;;;;5238790;28;20602;-68
2022/03/14 09:04:48;;;;;;;5.03;3.60;;;17.00;49.80;;;;;;5247653;28;20278;-67
2022/03/14 09:07:40;;;;;;;4.27;3.53;;;17.00;49.80;;;;;;5248187;28;20262;-67
2022/03/14 09:10:36;;;;;;;4.33;3.20;;;17.00;49.90;;;;;;5227126;28;20338;-67
2022/03/14 09:13:29;;;;;;;5.60;3.40;;;17.00;50.00;;;;;;5226278;28;20266;-68
2022/03/14 09:16:22;;;;;;;5.67;2.93;;;17.00;50.00;;;;;;5225891;28;20211;-68
2022/03/14 09:19:15;;;;;;;4.17;3.10;;;17.00;50.00;;;;;;5226775;28;20684;-69
2022/03/14 09:22:09;;;;;;;3.87;2.93;;;17.00;50.30;;;;;;5234044;28;20193;-70
2022/03/14 09:25:01;;;;;;;3.50;2.90;;;17.00;51.00;;;;;;5226903;28;20672;-69
2022/03/14 09:27:54;;;;;;;4.00;2.50;;;17.00;51.20;;;;;;5226929;28;20734;-69
2022/03/14 09:30:47;;;;;;;3.87;3.03;;;17.00;51.30;;;;;;5226224;28;20251;-70
2022/03/14 09:33:41;;;;;;;3.63;2.80;;;17.10;51.40;;;;;;5235515;28;20223;-70
2022/03/14 09:36:33;;;;;;;3.07;2.67;;;17.10;51.40;;;;;;5230042;28;20277;-69
2022/03/14 09:39:25;;;;;;;3.63;2.60;;;17.10;51.40;;;;;;5246370;28;20279;-70
2022/03/14 09:42:18;;;;;;;3.93;2.90;;;17.10;51.40;;;;;;5244875;28;20253;-70
2022/03/14 09:45:13;;;;;;;3.57;2.60;;;17.10;51.40;;;;;;5235835;28;20196;-70
2022/03/14 09:48:08;;;;;;;3.83;3.00;;;17.10;51.50;;;;;;5237533;28;20224;-70
2022/03/14 09:51:02;;;;;;;3.40;2.80;;;17.10;51.40;;;;;;5245380;28;20281;-69
2022/03/14 09:53:54;;;;;;;4.10;3.00;;;17.10;51.50;;;;;;5239852;28;20217;-70
2022/03/14 09:56:47;;;;;;;3.67;2.50;;;17.10;51.60;;;;;;5232664;28;20207;-69
2022/03/14 09:59:39;;;;;;;4.03;2.80;;;17.10;51.60;;;;;;5231996;28;20208;-70
2022/03/14 10:02:31;;;;;;;4.70;3.33;;;17.10;51.60;;;;;;5226352;28;20630;-71
2022/03/14 10:05:24;;;;;;;3.30;2.53;;;17.10;51.70;;;;;;5242404;28;20275;-71
2022/03/14 10:08:18;;;;;;;3.67;2.93;;;17.10;51.60;;;;;;5225930;28;20224;-69
2022/03/14 10:11:10;;;;;;;2.87;2.57;;;17.10;51.70;;;;;;5225907;28;20610;-69
2022/03/14 10:14:04;;;;;;;4.10;2.80;;;17.10;51.70;;;;;;5226947;28;20300;-70
2022/03/14 10:16:56;;;;;;;3.73;2.90;;;17.10;51.70;;;;;;5236103;28;20306;-69
2022/03/14 10:19:55;;;;;;;2.80;2.30;;;17.10;51.70;;;;;;5244157;28;20208;-69
2022/03/14 10:22:47;;;;;;;3.83;2.90;;;17.10;51.50;;;;;;5245451;28;20212;-69
2022/03/14 10:25:43;;;;;;;3.07;2.60;;;17.10;51.50;;;;;;5246012;28;20267;-68
2022/03/14 10:28:38;;;;;;;3.13;2.40;;;17.00;51.50;;;;;;5245519;28;20361;-69
2022/03/14 10:31:32;;;;;;;3.23;2.90;;;17.00;51.60;;;;;;5245226;28;20192;-69
2022/03/14 10:34:25;;;;;;;3.47;2.87;;;17.00;51.60;;;;;;5249921;28;20223;-68
2022/03/14 10:37:17;;;;;;;3.73;3.10;;;17.00;51.60;;;;;;5230779;28;20185;-69
2022/03/14 10:40:13;;;;;;;3.97;3.00;;;17.00;51.60;;;;;;5228370;28;20256;-70
2022/03/14 10:43:11;;;;;;;3.73;3.03;;;17.00;51.80;;;;;;5231500;28;20235;-68
2022/03/14 10:46:05;;;;;;;4.40;2.90;;;17.10;51.90;;;;;;5246214;28;20275;-69
2022/03/14 10:48:57;;;;;;;4.20;2.87;;;17.00;52.00;;;;;;5245823;28;20212;-68
2022/03/14 10:51:53;;;;;;;4.67;3.00;;;17.00;52.10;;;;;;5227598;28;20239;-69
2022/03/14 10:54:46;;;;;;;3.87;3.20;;;17.00;52.10;;;;;;5238987;28;20213;-69
2022/03/14 10:57:48;;;;;;;4.63;3.00;;;17.00;52.20;;;;;;5229450;28;20193;-70
2022/03/14 11:00:49;;;;;;;4.07;3.20;;;17.00;52.30;;;;;;5225455;28;20193;-68
2022/03/14 11:03:45;;;;;;;3.90;2.90;;;17.00;52.30;;;;;;5232012;28;20598;-69
2022/03/14 11:06:38;;;;;;;3.33;2.70;;;17.00;52.50;;;;;;5246309;28;20683;-70
2022/03/14 11:09:46;;;;;;;3.10;2.50;;;17.00;52.60;;;;;;5249815;28;20203;-70
2022/03/14 11:12:38;;;;;;;3.87;2.40;;;17.00;52.70;;;;;;5246975;28;20184;-71
2022/03/14 11:15:36;;;;;;;3.00;2.67;;;17.10;52.70;;;;;;5236148;28;20197;-72
2022/03/14 11:18:31;;;;;;;3.23;2.50;;;17.00;52.70;;;;;;5242273;28;20267;-71
2022/03/14 11:21:26;;;;;;;3.10;2.20;;;17.10;52.80;;;;;;5245137;28;20189;-71
2022/03/14 11:24:18;;;;;;;2.80;2.30;;;17.10;52.80;;;;;;5245331;28;20219;-69
2022/03/14 11:27:18;;;;;;;3.33;2.40;;;17.00;52.60;;;;;;5244655;28;22089;-68
2022/03/14 11:30:12;;;;;;;3.17;2.37;;;17.00;52.70;;;;;;5245214;28;20200;-69
2022/03/14 11:33:04;;;;;;;2.60;2.33;;;17.10;52.80;;;;;;5241572;28;20600;-68
2022/03/14 11:35:58;;;;;;;2.67;2.23;;;17.00;52.80;;;;;;5224972;28;20256;-69
2022/03/14 11:38:51;;;;;;;2.80;2.10;;;17.00;52.80;;;;;;5225855;28;20441;-68
2022/03/14 11:41:43;;;;;;;2.50;2.17;;;17.00;52.90;;;;;;5235937;28;20279;-68
2022/03/14 11:44:37;;;;;;;2.87;2.07;;;17.00;52.90;;;;;;5236666;28;20208;-69
2022/03/14 11:47:31;;;;;;;3.17;1.90;;;17.00;53.00;;;;;;5227652;28;20620;-69
2022/03/14 11:50:23;;;;;;;2.47;1.93;;;17.10;53.10;;;;;;5234329;28;20192;-67
2022/03/14 11:53:22;;;;;;;1.70;1.60;;;17.00;53.20;;;;;;5245092;28;20275;-66
2022/03/14 11:56:14;;;;;;;1.83;1.70;;;17.00;53.20;;;;;;5244482;28;20185;-68
2022/03/14 11:59:09;;;;;;;2.17;1.97;;;17.00;53.20;;;;;;5235557;28;20343;-69
2022/03/14 12:02:02;;;;;;;2.20;1.70;;;17.00;53.30;;;;;;5240321;28;20198;-69
2022/03/14 12:05:01;;;;;;;1.93;1.73;;;17.10;53.40;;;;;;5242935;28;20246;-69
2022/03/14 12:07:53;;;;;;;2.60;2.17;;;17.00;53.30;;;;;;5244307;28;20212;-69
2022/03/14 12:10:47;;;;;;;2.37;1.77;;;17.00;53.40;;;;;;5244577;28;20732;-67
2022/03/14 12:13:42;;;;;;;1.70;1.60;;;17.10;53.50;;;;;;5233415;28;20575;-69
2022/03/14 12:16:38;;;;;;;2.10;1.70;;;17.00;53.60;;;;;;5225063;28;20197;-68
2022/03/14 12:19:33;;;;;;;1.40;1.30;;;17.00;53.60;;;;;;5228714;28;20201;-69
2022/03/14 12:22:46;;;;;;;2.00;1.60;;;17.10;53.70;;;;;;5227197;28;20197;-66
2022/03/14 12:25:46;;;;;;;2.03;1.60;;;17.00;53.70;;;;;;5228611;28;20193;-68
2022/03/14 12:28:38;;;;;;;2.03;1.70;;;17.00;53.70;;;;;;5229162;28;20633;-67
2022/03/14 12:31:30;;;;;;;1.90;1.50;;;17.00;53.70;;;;;;5228340;28;20316;-68
2022/03/14 12:34:30;;;;;;;1.83;1.53;;;17.10;53.80;;;;;;5250595;22;20324;-69
2022/03/14 12:37:25;;;;;;;1.73;1.60;;;17.00;53.80;;;;;;5223682;28;20196;-69
2022/03/14 12:40:47;;;;;;;2.90;1.70;;;17.10;53.80;;;;;;5223328;28;20723;-70
2022/03/14 12:43:43;;;;;;;2.17;1.50;;;17.10;53.90;;;;;;5224087;28;20216;-68
2022/03/14 12:46:35;;;;;;;1.50;1.40;;;17.00;54.00;;;;;;5226616;28;20189;-69
2022/03/14 12:49:49;;;;;;;1.60;1.50;;;17.10;54.00;;;;;;5227480;28;20225;-69
2022/03/14 12:53:00;;;;;;;1.50;1.40;;;17.10;54.00;;;;;;5228123;28;20193;-69
2022/03/14 12:55:55;;;;;;;5.30;1.63;;;17.10;54.10;;;;;;5228391;28;20193;-69
2022/03/14 12:58:53;;;;;;;2.87;1.70;;;17.00;54.00;;;;;;5227309;28;20221;-70
2022/03/14 13:01:46;;;;;;;1.50;1.40;;;17.10;54.10;;;;;;5227724;28;20202;-70
2022/03/14 13:04:42;;;;;;;2.23;1.73;;;17.10;54.00;;;;;;5226813;28;20696;-69
2022/03/14 13:07:35;;;;;;;3.10;1.77;;;17.00;54.00;;;;;;5227230;28;20194;-70
2022/03/14 13:10:39;;;;;;;1.57;1.47;;;17.10;54.00;;;;;;5222423;28;20204;-70
2022/03/14 13:13:33;;;;;;;1.50;1.40;;;17.00;54.00;;;;;;5209289;28;20212;-69
2022/03/14 13:16:28;;;;;;;1.30;1.20;;;17.00;54.00;;;;;;5227059;28;20274;-69
2022/03/14 13:19:23;;;;;;;1.60;1.23;;;17.00;54.00;;;;;;5226601;28;20756;-70
2022/03/14 13:22:15;;;;;;;2.20;1.57;;;17.00;54.10;;;;;;5226743;28;20193;-69
2022/03/14 13:25:08;;;;;;;2.20;1.20;;;17.00;54.20;;;;;;5227460;28;20217;-69
2022/03/14 13:28:00;;;;;;;1.33;1.20;;;17.00;54.30;;;;;;5224992;28;20210;-70
2022/03/14 13:30:55;;;;;;;2.07;1.50;;;17.00;54.40;;;;;;5208038;28;20198;-70
2022/03/14 13:33:47;;;;;;;2.47;1.60;;;17.10;54.50;;;;;;5205934;28;20229;-69
2022/03/14 13:36:42;;;;;;;1.57;1.07;;;17.00;54.60;;;;;;5206041;28;20198;-69
2022/03/14 13:39:34;;;;;;;2.53;1.20;;;17.00;54.70;;;;;;5224133;28;20573;-69
2022/03/14 13:42:32;;;;;;;2.20;1.40;;;17.00;54.70;;;;;;5227004;28;20294;-68
2022/03/14 13:45:25;;;;;;;2.60;1.17;;;17.00;54.70;;;;;;5241440;28;20213;-69
2022/03/14 13:48:22;;;;;;;1.30;1.03;;;17.10;54.90;;;;;;5237239;28;20263;-70
2022/03/14 13:51:15;;;;;;;2.23;1.30;;;17.10;55.00;;;;;;5224563;28;20205;-70
2022/03/14 13:54:09;;;;;;;2.37;1.73;;;17.00;55.10;;;;;;5225113;28;20256;-69
2022/03/14 13:57:03;;;;;;;1.73;1.23;;;17.10;55.20;;;;;;5226667;28;20355;-70
2022/03/14 13:59:55;;;;;;;1.57;1.30;;;17.10;55.30;;;;;;5226721;28;20192;-69
2022/03/14 14:02:48;;;;;;;1.83;1.30;;;17.00;55.30;;;;;;5225865;28;20201;-69
2022/03/14 14:05:42;;;;;;;2.30;1.30;;;17.00;55.30;;;;;;5226922;28;20275;-69
2022/03/14 14:08:34;;;;;;;1.10;1.00;;;17.00;55.40;;;;;;5206053;28;20209;-69
2022/03/14 14:11:26;;;;;;;1.20;1.10;;;17.00;55.50;;;;;;5224917;28;20251;-68
2022/03/14 14:14:25;;;;;;;1.30;1.10;;;17.00;55.40;;;;;;5226017;28;20224;-67
2022/03/14 14:17:20;;;;;;;1.13;1.03;;;17.10;55.30;;;;;;5226038;28;20201;-69
2022/03/14 14:20:15;;;;;;;1.40;1.10;;;17.10;55.40;;;;;;5225568;28;20189;-69
2022/03/14 14:23:13;;;;;;;1.13;0.90;;;17.10;55.60;;;;;;5224503;28;20193;-70
2022/03/14 14:26:06;;;;;;;1.13;1.00;;;17.10;55.70;;;;;;5234905;28;20670;-70
2022/03/14 14:28:58;;;;;;;1.63;1.33;;;17.10;55.70;;;;;;5224981;28;20213;-70
2022/03/14 14:31:50;;;;;;;1.73;1.00;;;17.10;55.80;;;;;;5223426;28;20277;-70
2022/03/14 14:34:43;;;;;;;1.40;0.80;;;17.10;55.80;;;;;;5225391;28;20248;-69
2022/03/14 14:37:35;;;;;;;1.53;1.00;;;17.10;55.90;;;;;;5224940;28;20215;-69
2022/03/14 14:40:29;;;;;;;1.10;1.00;;;17.10;55.90;;;;;;5220211;28;20255;-69
2022/03/14 14:43:22;;;;;;;1.17;0.90;;;17.10;55.90;;;;;;5225648;28;20185;-69
2022/03/14 14:46:15;;;;;;;0.93;0.83;;;17.10;56.00;;;;;;5224866;28;20201;-69
2022/03/14 14:49:07;;;;;;;1.77;0.93;;;17.10;56.00;;;;;;5204337;28;20216;-70
2022/03/14 14:51:59;;;;;;;1.00;0.90;;;17.10;56.10;;;;;;5215710;28;20201;-68
2022/03/14 14:54:54;;;;;;;1.40;0.77;;;17.10;56.10;;;;;;5224124;28;20339;-68
2022/03/14 14:57:50;;;;;;;2.23;0.83;;;17.10;55.90;;;;;;5223239;28;20197;-69
2022/03/14 15:00:45;;;;;;;1.00;0.90;;;17.10;55.70;;;;;;5224953;28;20181;-69
2022/03/14 15:03:37;;;;;;;1.07;0.70;;;17.10;55.60;;;;;;5225126;28;20278;-68